Time;durP1;ratioP1;P1;durP2;ratioP2;P2;SDS_P1;SDS_P2;PMS_P1;PMS_P2;Temp;Humidity;BMP_temperature;BMP_pressure;BME280_temperature;BME280_humidity;BME280_pressure;Samples;Min_cycle;Max_cycle;Signal;HPM_P1;HPM_P2
2020/12/25 00:01:31;;;;;;;8.57;6.03;;;;;;;4.04;81.65;100786.38;5065008;28;21354;-62
2020/12/25 00:03:58;;;;;;;9.43;5.50;;;;;;;4.03;81.92;100792.56;5069320;28;20286;-63
2020/12/25 00:06:34;;;;;;;7.83;5.93;;;;;;;4.02;81.63;100795.25;5068342;28;20221;-63
2020/12/25 00:09:00;;;;;;;9.33;5.73;;;;;;;3.99;81.55;100790.09;5068002;28;20200;-63
2020/12/25 00:11:30;;;;;;;10.50;5.90;;;;;;;3.98;81.96;100791.00;5067247;28;20233;-63
2020/12/25 00:13:56;;;;;;;7.43;5.60;;;;;;;3.97;81.98;100800.66;5067297;28;20211;-63
2020/12/25 00:16:24;;;;;;;9.80;5.03;;;;;;;3.95;81.84;100799.84;5065808;28;20354;-63
2020/12/25 00:18:50;;;;;;;7.27;5.30;;;;;;;3.93;82.02;100801.72;5056029;28;20312;-63
2020/12/25 00:21:17;;;;;;;7.17;5.27;;;;;;;3.92;81.35;100800.00;5048319;28;20200;-63
2020/12/25 00:23:44;;;;;;;10.43;5.63;;;;;;;3.91;81.90;100803.53;5067044;28;20661;-64
2020/12/25 00:26:10;;;;;;;7.40;5.30;;;;;;;3.89;81.60;100807.13;5063931;28;20300;-64
2020/12/25 00:28:36;;;;;;;6.33;5.03;;;;;;;3.87;81.24;100812.44;5069851;28;20201;-63
2020/12/25 00:31:02;;;;;;;10.87;5.50;;;;;;;3.86;81.19;100809.84;5065120;28;20228;-62
2020/12/25 00:33:28;;;;;;;5.57;4.67;;;;;;;3.83;81.85;100822.22;5056982;28;20242;-62
2020/12/25 00:35:54;;;;;;;8.60;5.30;;;;;;;3.82;81.56;100832.81;5064006;28;20639;-63
2020/12/25 00:38:20;;;;;;;7.47;4.57;;;;;;;3.80;81.51;100832.84;5063133;28;20300;-63
2020/12/25 00:40:47;;;;;;;6.23;5.10;;;;;;;3.79;81.59;100831.13;5069383;28;20197;-62
2020/12/25 00:43:14;;;;;;;8.60;5.10;;;;;;;3.78;81.01;100841.72;5065435;28;20280;-62
2020/12/25 00:45:40;;;;;;;7.00;4.53;;;;;;;3.76;80.86;100843.56;5067140;28;20700;-62
2020/12/25 00:48:06;;;;;;;6.23;4.40;;;;;;;3.74;81.60;100848.00;5067366;28;20256;-62
2020/12/25 00:50:32;;;;;;;8.03;4.70;;;;;;;3.72;81.06;100855.09;5068580;28;20212;-63
2020/12/25 00:52:58;;;;;;;6.07;4.50;;;;;;;3.71;80.85;100850.75;5067216;28;20677;-62
2020/12/25 00:55:24;;;;;;;4.43;3.73;;;;;;;3.68;81.13;100867.50;5070772;28;20228;-63
2020/12/25 00:57:51;;;;;;;5.97;4.30;;;;;;;3.65;80.83;100864.09;5066866;28;20304;-62
2020/12/25 01:00:17;;;;;;;5.50;3.47;;;;;;;3.60;80.74;100872.13;5066529;28;20225;-63
2020/12/25 01:02:43;;;;;;;5.63;3.13;;;;;;;3.57;81.16;100866.97;5060486;28;20297;-62
2020/12/25 01:05:09;;;;;;;5.73;4.23;;;;;;;3.55;80.66;100867.94;5043608;28;20228;-62
2020/12/25 01:07:36;;;;;;;6.43;3.97;;;;;;;3.52;80.50;100874.16;5046705;28;20234;-62
2020/12/25 01:10:02;;;;;;;4.87;3.37;;;;;;;3.53;80.59;100877.66;5051471;28;20210;-62
2020/12/25 01:12:28;;;;;;;5.87;3.70;;;;;;;3.51;80.55;100882.09;5049255;28;20292;-62
2020/12/25 01:14:55;;;;;;;6.73;3.37;;;;;;;3.48;80.61;100896.22;5049902;28;20284;-62
2020/12/25 01:17:21;;;;;;;5.63;3.70;;;;;;;3.47;80.41;100887.47;5050222;28;20228;-61
2020/12/25 01:19:47;;;;;;;6.03;3.57;;;;;;;3.48;80.38;100893.59;5048248;28;20325;-63
2020/12/25 01:22:13;;;;;;;5.93;3.17;;;;;;;3.47;80.18;100907.66;5055868;28;20299;-62
2020/12/25 01:24:39;;;;;;;6.47;3.23;;;;;;;3.43;80.35;100908.66;5049317;28;20226;-62
2020/12/25 01:27:05;;;;;;;6.37;3.60;;;;;;;3.38;80.09;100908.81;5048161;28;20257;-61
2020/12/25 01:29:31;;;;;;;6.80;3.63;;;;;;;3.36;79.90;100905.34;5047380;28;20228;-63
2020/12/25 01:31:58;;;;;;;5.30;3.43;;;;;;;3.34;79.79;100912.44;5051016;28;20225;-62
2020/12/25 01:34:25;;;;;;;4.03;2.80;;;;;;;3.32;79.71;100913.38;5044825;28;20612;-61
2020/12/25 01:36:51;;;;;;;5.33;2.80;;;;;;;3.30;80.05;100921.31;5033950;28;20324;-61
2020/12/25 01:39:17;;;;;;;5.80;3.23;;;;;;;3.29;79.26;100919.59;5035073;28;20274;-62
2020/12/25 01:41:43;;;;;;;6.13;3.50;;;;;;;3.28;79.84;100922.28;5051006;28;20213;-60
2020/12/25 01:44:09;;;;;;;6.83;3.93;;;;;;;3.27;79.11;100918.78;5051948;28;20229;-63
2020/12/25 01:46:39;;;;;;;5.73;4.03;;;;;;;3.25;79.13;100927.63;5049954;28;20304;-62
2020/12/25 01:49:06;;;;;;;7.90;3.00;;;;;;;3.25;79.46;100927.63;5051483;28;20617;-63
2020/12/25 01:51:32;;;;;;;3.83;3.23;;;;;;;3.21;79.30;100924.25;5039995;28;20230;-61
2020/12/25 01:53:59;;;;;;;6.20;3.27;;;;;;;3.20;79.20;100933.03;5046326;28;20733;-61
2020/12/25 01:56:25;;;;;;;7.10;3.80;;;;;;;3.18;78.62;100932.22;5050583;28;20784;-65
2020/12/25 01:58:51;;;;;;;6.40;3.80;;;;;;;3.15;78.68;100937.56;5051483;28;20312;-61
2020/12/25 02:01:17;;;;;;;3.73;3.20;;;;;;;3.13;79.41;100939.38;5050112;28;20243;-61
2020/12/25 02:03:44;;;;;;;5.57;4.03;;;;;;;3.10;78.91;100949.97;5050089;28;20220;-61
2020/12/25 02:06:11;;;;;;;5.30;3.30;;;;;;;3.06;78.73;100964.13;5044077;28;20229;-63
2020/12/25 02:08:37;;;;;;;3.57;3.20;;;;;;;3.02;78.56;100962.50;5051798;28;20229;-61
2020/12/25 02:11:03;;;;;;;4.10;3.00;;;;;;;2.96;77.93;100973.19;5050563;28;20701;-61
2020/12/25 02:13:30;;;;;;;4.87;3.30;;;;;;;2.94;78.66;100967.09;5040154;28;20296;-61
2020/12/25 02:15:56;;;;;;;5.93;3.93;;;;;;;2.93;77.93;100970.63;5044535;28;20214;-63
2020/12/25 02:18:23;;;;;;;5.90;3.80;;;;;;;2.95;77.99;100974.94;5057064;28;20237;-62
2020/12/25 02:20:49;;;;;;;7.47;3.40;;;;;;;2.95;77.67;100972.31;5049973;28;20706;-60
2020/12/25 02:23:16;;;;;;;3.40;3.10;;;;;;;2.95;77.86;100968.81;5050145;28;20304;-61
2020/12/25 02:25:42;;;;;;;4.33;3.40;;;;;;;2.94;77.60;100970.59;5049655;28;20205;-61
2020/12/25 02:28:08;;;;;;;4.13;2.77;;;;;;;2.93;78.08;100963.59;5047142;28;20309;-62
2020/12/25 02:30:34;;;;;;;3.73;2.60;;;;;;;2.93;77.76;100958.34;5051000;28;20578;-63
2020/12/25 02:33:00;;;;;;;3.80;2.50;;;;;;;2.93;77.60;100968.84;5050562;28;20209;-64
2020/12/25 02:35:26;;;;;;;4.40;3.13;;;;;;;2.91;77.18;100968.03;5051434;28;20229;-63
2020/12/25 02:37:52;;;;;;;9.13;2.43;;;;;;;2.91;77.38;100975.91;5042701;28;20312;-63
2020/12/25 02:40:19;;;;;;;4.73;2.70;;;;;;;2.91;76.76;100969.78;5048204;28;20628;-62
2020/12/25 02:42:46;;;;;;;6.67;3.27;;;;;;;2.90;77.61;100979.47;5051048;28;20662;-60
2020/12/25 02:45:12;;;;;;;3.43;2.97;;;;;;;2.90;77.54;100982.09;5050122;28;20293;-63
2020/12/25 02:47:40;;;;;;;7.70;3.00;;;;;;;2.88;77.00;100989.16;5051033;28;20316;-63
2020/12/25 02:50:07;;;;;;;6.57;2.90;;;;;;;2.87;77.41;100987.41;5059896;28;20201;-62
2020/12/25 02:52:33;;;;;;;4.97;3.03;;;;;;;2.87;76.93;100990.06;5040284;28;20240;-63
2020/12/25 02:54:59;;;;;;;5.10;3.23;;;;;;;2.86;76.94;100998.00;5046183;28;20240;-63
2020/12/25 02:57:26;;;;;;;4.60;2.87;;;;;;;2.89;76.64;100997.91;5049144;28;20235;-63
2020/12/25 02:59:52;;;;;;;6.10;3.20;;;;;;;2.91;76.53;101001.38;5051362;28;20257;-63
2020/12/25 03:02:18;;;;;;;3.27;2.90;;;;;;;2.91;76.98;101001.38;5050726;28;20297;-63
2020/12/25 03:04:44;;;;;;;4.63;2.90;;;;;;;2.93;77.11;100997.78;5049238;28;20205;-62
2020/12/25 03:07:11;;;;;;;8.13;3.13;;;;;;;2.93;76.44;101003.06;5050236;28;20304;-63
2020/12/25 03:09:37;;;;;;;5.00;3.03;;;;;;;2.92;76.64;101009.22;5049970;28;20300;-62
2020/12/25 03:12:03;;;;;;;6.13;3.10;;;;;;;2.93;77.33;101004.81;5049773;28;20694;-63
2020/12/25 03:14:30;;;;;;;5.63;3.33;;;;;;;2.93;77.17;101010.09;5050713;28;20649;-62
2020/12/25 03:16:56;;;;;;;3.80;3.50;;;;;;;2.93;77.00;101005.69;5052713;28;20274;-63
2020/12/25 03:19:22;;;;;;;3.57;3.27;;;;;;;2.94;77.33;101009.19;5048694;28;20229;-62
2020/12/25 03:21:48;;;;;;;4.97;3.13;;;;;;;2.94;76.68;101017.06;5051547;28;20292;-63
2020/12/25 03:24:15;;;;;;;5.50;3.40;;;;;;;2.93;76.93;101021.47;5053985;28;20706;-62
2020/12/25 03:26:41;;;;;;;5.33;3.43;;;;;;;2.94;76.37;101012.69;5054535;28;20736;-63
2020/12/25 03:29:07;;;;;;;4.20;3.30;;;;;;;2.93;77.13;101007.44;5043301;28;20276;-62
2020/12/25 03:31:34;;;;;;;4.20;3.37;;;;;;;2.93;76.83;101020.59;5065410;28;20209;-63
2020/12/25 03:34:00;;;;;;;5.00;3.80;;;;;;;2.93;76.90;101020.59;5054742;28;20210;-63
2020/12/25 03:36:26;;;;;;;5.40;3.53;;;;;;;2.93;76.48;101025.88;5087312;22;20733;-64
2020/12/25 03:38:52;;;;;;;4.97;3.67;;;;;;;2.91;76.68;101025.03;5059722;28;20240;-64
2020/12/25 03:41:18;;;;;;;6.77;4.33;;;;;;;2.88;76.70;101027.75;5074276;28;20233;-68
2020/12/25 03:43:45;;;;;;;4.90;4.00;;;;;;;2.86;76.84;101030.44;5066813;28;20229;-64
2020/12/25 03:46:11;;;;;;;5.17;4.13;;;;;;;2.87;76.46;101031.28;5063884;28;20295;-66
2020/12/25 03:48:39;;;;;;;4.97;4.33;;;;;;;2.86;75.97;101027.81;5070680;28;20256;-65
2020/12/25 03:51:05;;;;;;;4.03;3.47;;;;;;;2.86;76.42;101032.22;5046300;28;20206;-64
2020/12/25 03:53:31;;;;;;;5.73;3.27;;;;;;;2.84;76.23;101036.66;5047756;28;20205;-64
2020/12/25 03:55:57;;;;;;;6.47;3.60;;;;;;;2.83;76.34;101043.66;5052751;28;20292;-63
2020/12/25 03:58:23;;;;;;;4.83;3.60;;;;;;;2.83;76.33;101040.19;5052562;28;20320;-63
2020/12/25 04:00:50;;;;;;;4.80;3.83;;;;;;;2.83;75.92;101040.19;5051837;28;20304;-64
2020/12/25 04:03:16;;;;;;;3.80;3.50;;;;;;;2.83;76.48;101042.81;5048174;28;20238;-64
2020/12/25 04:05:43;;;;;;;3.90;3.50;;;;;;;2.82;75.84;101039.31;5045918;28;20201;-65
2020/12/25 04:08:10;;;;;;;6.93;3.30;;;;;;;2.82;75.90;101044.56;5052817;28;20244;-65
2020/12/25 04:10:36;;;;;;;6.93;3.57;;;;;;;2.82;76.34;101047.19;5067038;28;20570;-63
2020/12/25 04:13:02;;;;;;;4.13;3.23;;;;;;;2.82;76.31;101048.97;5059775;28;20651;-63
2020/12/25 04:15:28;;;;;;;3.63;3.33;;;;;;;2.82;75.89;101049.84;5051470;28;20283;-65
2020/12/25 04:17:54;;;;;;;6.57;3.30;;;;;;;2.83;76.60;101055.97;5052647;28;20316;-62
2020/12/25 04:20:20;;;;;;;4.13;3.03;;;;;;;2.83;76.04;101058.59;5046026;28;20332;-64
2020/12/25 04:22:50;;;;;;;5.17;3.37;;;;;;;2.82;76.77;101072.63;5052849;28;20239;-65
2020/12/25 04:25:16;;;;;;;5.33;3.30;;;;;;;2.81;76.59;101084.94;5053034;28;20284;-63
2020/12/25 04:27:43;;;;;;;3.80;2.90;;;;;;;2.79;76.31;101078.84;5052514;28;20271;-64
2020/12/25 04:30:09;;;;;;;8.13;3.10;;;;;;;2.78;76.78;101083.22;5050026;28;20304;-65
2020/12/25 04:32:35;;;;;;;6.53;3.10;;;;;;;2.77;76.83;101089.41;5051408;28;20210;-64
2020/12/25 04:35:01;;;;;;;4.20;3.00;;;;;;;2.75;77.44;101091.19;5052999;28;20296;-64
2020/12/25 04:37:27;;;;;;;4.80;2.70;;;;;;;2.75;77.21;101085.94;5050496;28;20323;-64
2020/12/25 04:39:54;;;;;;;2.83;2.50;;;;;;;2.72;77.25;101099.16;5052551;28;20237;-64
2020/12/25 04:42:20;;;;;;;6.97;2.80;;;;;;;2.72;77.67;101099.16;5051249;28;20216;-63
2020/12/25 04:44:48;;;;;;;3.33;2.97;;;;;;;2.70;77.46;101102.72;5053446;28;20248;-64
2020/12/25 04:47:14;;;;;;;3.40;2.67;;;;;;;2.69;77.82;101107.09;5050815;28;20304;-66
2020/12/25 04:49:40;;;;;;;5.10;3.50;;;;;;;2.67;77.55;101108.94;5052083;28;20241;-65
2020/12/25 04:52:06;;;;;;;4.20;2.60;;;;;;;2.67;77.80;101108.06;5048330;28;20233;-65
2020/12/25 04:54:33;;;;;;;3.47;2.63;;;;;;;2.65;78.22;101107.25;5063475;28;20213;-64
2020/12/25 04:57:00;;;;;;;5.43;2.93;;;;;;;2.64;77.34;101116.91;5050831;28;20312;-64
2020/12/25 04:59:27;;;;;;;4.67;2.90;;;;;;;2.63;77.97;101122.19;5050898;28;20730;-64
2020/12/25 05:01:56;;;;;;;3.67;2.87;;;;;;;2.62;78.15;101129.22;5051108;28;20253;-65
2020/12/25 05:04:24;;;;;;;4.10;2.93;;;;;;;2.60;77.70;101122.25;5052665;28;20230;-66
2020/12/25 05:06:51;;;;;;;5.07;2.73;;;;;;;2.62;78.48;101120.47;5049282;28;20229;-65
2020/12/25 05:09:20;;;;;;;3.77;2.50;;;;;;;2.60;78.12;101124.88;5041095;28;20694;-64
2020/12/25 05:11:50;;;;;;;6.63;2.93;;;;;;;2.58;78.10;101127.53;5048190;28;20308;-64
2020/12/25 05:14:18;;;;;;;3.83;2.60;;;;;;;2.57;78.53;101131.06;5052483;28;20209;-64
2020/12/25 05:16:48;;;;;;;3.20;2.50;;;;;;;2.57;78.36;101130.19;5050413;28;20316;-64
2020/12/25 05:19:14;;;;;;;4.47;2.60;;;;;;;2.57;78.64;101133.69;5042489;28;20234;-64
2020/12/25 05:21:41;;;;;;;5.17;2.60;;;;;;;2.57;78.33;101130.19;5045713;28;20748;-64
2020/12/25 05:24:08;;;;;;;2.93;2.63;;;;;;;2.56;78.42;101131.97;5045728;28;20229;-63
2020/12/25 05:26:35;;;;;;;4.27;2.70;;;;;;;2.57;78.09;101132.84;5046122;28;20213;-61
2020/12/25 05:29:02;;;;;;;4.47;2.53;;;;;;;2.57;78.78;101138.09;5050237;28;20276;-63
2020/12/25 05:31:29;;;;;;;4.33;2.87;;;;;;;2.56;78.46;101136.34;5051407;28;20201;-61
2020/12/25 05:33:58;;;;;;;4.10;2.27;;;;;;;2.54;78.49;101133.75;5037831;28;20300;-63
2020/12/25 05:36:29;;;;;;;3.07;2.33;;;;;;;2.54;78.12;101146.03;5042944;28;20263;-62
2020/12/25 05:38:56;;;;;;;2.60;2.37;;;;;;;2.52;78.26;101151.34;5050041;28;20232;-62
2020/12/25 05:41:24;;;;;;;4.13;2.43;;;;;;;2.51;78.63;101148.78;5052609;28;20194;-62
2020/12/25 05:43:53;;;;;;;3.77;2.33;;;;;;;2.51;78.88;101146.97;5043949;28;20244;-63
2020/12/25 05:46:19;;;;;;;5.40;2.70;;;;;;;2.51;78.21;101154.84;5040434;28;20666;-63
2020/12/25 05:48:49;;;;;;;4.67;2.60;;;;;;;2.51;78.10;101154.03;5047309;28;20256;-64
2020/12/25 05:51:15;;;;;;;5.57;2.70;;;;;;;2.51;78.61;101154.03;5051550;28;20237;-64
2020/12/25 05:53:44;;;;;;;3.20;2.80;;;;;;;2.50;78.52;101153.16;5048969;28;20684;-63
2020/12/25 05:56:12;;;;;;;3.10;2.23;;;;;;;2.50;78.57;101150.53;5051504;28;20209;-62
2020/12/25 05:58:43;;;;;;;3.80;2.10;;;;;;;2.52;78.67;101160.97;5050137;28;20225;-63
2020/12/25 06:01:10;;;;;;;4.63;2.80;;;;;;;2.51;78.59;101170.63;5050244;28;20308;-63
2020/12/25 06:03:37;;;;;;;4.23;2.70;;;;;;;2.50;78.97;101168.94;5049235;28;20294;-63
2020/12/25 06:06:11;;;;;;;3.43;2.20;;;;;;;2.49;78.86;101167.22;5051406;28;20607;-64
2020/12/25 06:08:47;;;;;;;3.87;2.50;;;;;;;2.49;79.14;101172.47;5043196;28;20733;-63
2020/12/25 06:11:16;;;;;;;4.67;2.07;;;;;;;2.48;79.14;101176.00;5044601;28;20233;-64
2020/12/25 06:13:43;;;;;;;6.07;2.43;;;;;;;2.48;79.15;101188.25;5041920;28;20568;-64
2020/12/25 06:16:13;;;;;;;3.90;2.00;;;;;;;2.46;78.64;101190.06;5050795;28;20307;-64
2020/12/25 06:18:46;;;;;;;2.20;1.80;;;;;;;2.44;79.33;101179.56;5050218;28;20314;-63
2020/12/25 06:21:17;;;;;;;4.67;2.40;;;;;;;2.40;78.88;101193.69;5050539;28;20378;-64
2020/12/25 06:23:44;;;;;;;3.37;2.50;;;;;;;2.37;78.47;101191.97;5041157;28;20650;-64
2020/12/25 06:26:11;;;;;;;6.20;2.33;;;;;;;2.36;79.15;101199.88;5056448;28;20609;-64
2020/12/25 06:28:41;;;;;;;3.60;2.43;;;;;;;2.34;78.91;101199.06;5052947;28;20597;-63
2020/12/25 06:31:09;;;;;;;4.00;2.50;;;;;;;2.33;79.42;101202.59;5051720;28;20578;-64
2020/12/25 06:33:36;;;;;;;3.27;2.37;;;;;;;2.33;79.47;101206.06;5046514;28;20332;-65
2020/12/25 06:36:02;;;;;;;2.70;2.20;;;;;;;2.32;79.59;101209.63;5036779;28;20244;-63
2020/12/25 06:38:41;;;;;;;4.63;2.10;;;;;;;2.30;79.40;101214.03;5050504;28;20320;-63
2020/12/25 06:41:10;;;;;;;4.50;2.20;;;;;;;2.27;79.08;101214.09;5034841;28;20721;-64
2020/12/25 06:43:36;;;;;;;3.70;2.50;;;;;;;2.23;78.86;101217.69;5050020;28;20213;-65
2020/12/25 06:46:03;;;;;;;2.93;2.40;;;;;;;2.20;78.94;101222.13;5046791;28;20312;-63
2020/12/25 06:48:30;;;;;;;2.67;2.23;;;;;;;2.17;79.24;101228.31;5050050;28;20254;-63
2020/12/25 06:50:58;;;;;;;2.83;2.43;;;;;;;2.16;78.77;101228.31;5049792;28;20205;-63
2020/12/25 06:53:36;;;;;;;3.10;2.30;;;;;;;2.13;78.71;101228.41;5051087;28;20197;-63
2020/12/25 06:56:11;;;;;;;2.57;2.37;;;;;;;2.10;78.69;101229.34;5052860;28;20197;-64
2020/12/25 06:58:39;;;;;;;3.93;2.10;;;;;;;2.08;78.81;101232.00;5055002;28;20222;-63
2020/12/25 07:01:06;;;;;;;2.73;2.37;;;;;;;2.07;78.89;101246.03;5052870;28;20239;-64
2020/12/25 07:03:35;;;;;;;2.97;2.10;;;;;;;2.06;78.70;101244.28;5047466;28;20233;-65
2020/12/25 07:06:03;;;;;;;2.80;2.50;;;;;;;2.04;79.03;101239.94;5046040;28;20226;-64
2020/12/25 07:08:31;;;;;;;3.13;2.03;;;;;;;2.02;78.87;101249.63;5041779;28;20257;-63
2020/12/25 07:11:02;;;;;;;3.60;2.60;;;;;;;2.01;79.13;101250.50;5053722;28;20292;-63
2020/12/25 07:13:30;;;;;;;5.23;2.20;;;;;;;2.01;78.72;101256.63;5040887;28;20592;-63
2020/12/25 07:15:57;;;;;;;2.90;2.10;;;;;;;2.00;78.79;101257.53;5053821;28;20262;-63
2020/12/25 07:18:23;;;;;;;6.70;2.40;;;;;;;1.99;78.93;101257.56;5054775;28;20291;-64
2020/12/25 07:20:49;;;;;;;2.47;2.00;;;;;;;1.98;78.50;101268.94;5063020;28;20316;-63
2020/12/25 07:23:16;;;;;;;4.73;2.50;;;;;;;1.97;78.44;101264.63;5061256;28;20201;-63
2020/12/25 07:25:42;;;;;;;2.67;2.37;;;;;;;1.97;78.49;101275.13;5053570;28;20209;-63
2020/12/25 07:28:09;;;;;;;3.63;2.27;;;;;;;1.95;78.88;101271.66;5053397;28;20252;-63
2020/12/25 07:30:36;;;;;;;5.27;3.13;;;;;;;1.95;78.60;101274.28;5052669;28;20308;-63
2020/12/25 07:33:03;;;;;;;5.00;2.40;;;;;;;1.92;78.66;101277.84;5045118;28;20241;-63
2020/12/25 07:35:30;;;;;;;6.37;2.57;;;;;;;1.90;78.80;101284.88;5052878;28;20237;-63
2020/12/25 07:37:56;;;;;;;4.43;2.70;;;;;;;1.89;78.30;101283.13;5053465;28;20684;-63
2020/12/25 07:40:22;;;;;;;5.53;2.70;;;;;;;1.88;78.77;101289.28;5053826;28;20657;-63
2020/12/25 07:42:49;;;;;;;5.83;2.73;;;;;;;1.87;78.44;101292.81;5054094;28;20553;-64
2020/12/25 07:45:16;;;;;;;5.00;2.90;;;;;;;1.87;78.42;101297.19;5052436;28;20703;-62
2020/12/25 07:47:43;;;;;;;5.53;3.10;;;;;;;1.88;78.44;101293.66;5053682;28;20823;-64
2020/12/25 07:50:09;;;;;;;3.90;2.90;;;;;;;1.89;78.72;101311.16;5052646;28;20233;-63
2020/12/25 07:52:36;;;;;;;5.63;3.07;;;;;;;1.88;78.39;101304.16;5053718;28;20288;-65
2020/12/25 07:55:02;;;;;;;5.07;3.17;;;;;;;1.89;79.02;101301.53;5053353;28;20740;-64
2020/12/25 07:57:28;;;;;;;6.40;3.63;;;;;;;1.89;78.94;101314.66;5051329;28;20231;-64
2020/12/25 07:59:55;;;;;;;6.97;5.77;;;;;;;1.89;79.13;101316.41;5052844;28;20229;-65
2020/12/25 08:02:22;;;;;;;5.47;3.73;;;;;;;1.87;78.76;101316.44;5052391;28;20234;-64
2020/12/25 08:04:49;;;;;;;5.07;4.30;;;;;;;1.88;79.05;101320.78;5050458;28;20213;-65
2020/12/25 08:07:15;;;;;;;5.57;4.37;;;;;;;1.88;78.96;101318.16;5052465;28;20267;-63
2020/12/25 08:09:43;;;;;;;8.70;5.23;;;;;;;1.87;78.70;101321.69;5053003;28;20214;-64
2020/12/25 08:12:10;;;;;;;9.27;5.23;;;;;;;1.86;78.93;101327.84;5045596;28;20209;-64
2020/12/25 08:14:39;;;;;;;5.93;4.83;;;;;;;1.87;78.89;101329.56;5052232;28;20289;-64
2020/12/25 08:17:05;;;;;;;5.20;4.67;;;;;;;1.87;78.63;101329.56;5052471;28;20233;-64
2020/12/25 08:19:34;;;;;;;6.90;6.20;;;;;;;1.89;79.29;101333.03;5049072;28;20265;-64
2020/12/25 08:22:04;;;;;;;10.27;5.80;;;;;;;1.91;78.99;101333.00;5051858;28;20292;-64
2020/12/25 08:24:30;;;;;;;9.27;5.07;;;;;;;1.91;79.09;101333.00;5052293;28;20228;-64
2020/12/25 08:27:00;;;;;;;9.17;4.50;;;;;;;1.93;79.27;101345.25;5052444;28;20233;-64
2020/12/25 08:29:26;;;;;;;10.30;6.00;;;;;;;1.92;79.29;101343.50;5053114;28;20210;-63
2020/12/25 08:31:52;;;;;;;8.27;4.60;;;;;;;1.92;78.89;101354.00;5055524;28;20206;-65
2020/12/25 08:34:25;;;;;;;5.70;4.47;;;;;;;1.94;79.71;101353.97;5059008;28;20201;-64
2020/12/25 08:36:59;;;;;;;7.43;5.13;;;;;;;1.93;79.58;101361.00;5048829;28;20234;-64
2020/12/25 08:39:26;;;;;;;8.63;5.03;;;;;;;1.92;79.71;101359.25;5047827;28;20222;-65
2020/12/25 08:41:53;;;;;;;19.87;5.07;;;;;;;1.92;79.33;101364.50;5041474;28;20574;-65
2020/12/25 08:44:20;;;;;;;12.43;7.23;;;;;;;1.92;79.06;101363.66;5047863;28;20206;-65
2020/12/25 08:46:46;;;;;;;8.83;6.93;;;;;;;1.92;79.23;101364.50;5050231;28;20221;-65
2020/12/25 08:49:12;;;;;;;14.73;7.03;;;;;;;1.92;79.83;101359.25;5047613;28;20230;-64
2020/12/25 08:51:39;;;;;;;11.07;6.07;;;;;;;1.93;79.54;101368.88;5048855;28;20260;-64
2020/12/25 08:54:06;;;;;;;10.10;6.67;;;;;;;1.94;79.97;101370.63;5042524;28;20201;-64
2020/12/25 08:56:35;;;;;;;6.53;4.40;;;;;;;1.95;79.44;101382.00;5052161;28;20201;-63
2020/12/25 08:59:03;;;;;;;5.70;4.27;;;;;;;1.94;79.51;101383.75;5045778;28;20346;-65
2020/12/25 09:01:30;;;;;;;8.40;4.40;;;;;;;1.94;79.31;101391.63;5046258;28;20300;-63
2020/12/25 09:03:58;;;;;;;8.30;4.17;;;;;;;1.94;79.82;101389.00;5047588;28;20288;-65
2020/12/25 09:06:25;;;;;;;9.53;6.30;;;;;;;1.96;79.64;101389.84;5050917;28;20210;-63
2020/12/25 09:08:51;;;;;;;5.97;4.70;;;;;;;1.97;79.66;101403.84;5046280;28;20205;-63
2020/12/25 09:11:20;;;;;;;7.23;5.00;;;;;;;1.98;79.79;101395.91;5047240;28;20249;-63
2020/12/25 09:13:47;;;;;;;11.23;5.13;;;;;;;1.99;80.05;101397.66;5048617;28;20253;-63
2020/12/25 09:16:14;;;;;;;9.70;5.50;;;;;;;2.01;79.62;101395.00;5048969;28;20198;-65
2020/12/25 09:18:40;;;;;;;9.60;5.50;;;;;;;2.03;79.80;101387.97;5045899;28;20257;-63
2020/12/25 09:21:08;;;;;;;8.67;4.77;;;;;;;2.03;80.23;101391.47;5046872;28;20252;-63
2020/12/25 09:23:35;;;;;;;9.63;5.20;;;;;;;2.05;79.90;101394.94;5053713;28;20220;-63
2020/12/25 09:26:01;;;;;;;5.90;4.33;;;;;;;2.03;79.71;101401.09;5051702;28;20209;-64
2020/12/25 09:28:28;;;;;;;8.47;4.70;;;;;;;2.03;80.17;101396.72;5048939;28;20229;-65
2020/12/25 09:30:55;;;;;;;8.23;4.97;;;;;;;2.03;80.00;101396.72;5047545;28;20270;-65
2020/12/25 09:33:22;;;;;;;7.27;4.90;;;;;;;2.02;79.99;101399.38;5051346;28;20201;-64
2020/12/25 09:35:49;;;;;;;9.30;4.93;;;;;;;2.02;80.11;101402.00;5049747;28;20719;-63
2020/12/25 09:38:15;;;;;;;8.00;5.47;;;;;;;2.02;79.36;101399.38;5051780;22;20258;-63
2020/12/25 09:40:41;;;;;;;11.07;5.17;;;;;;;2.01;79.70;101389.75;5036039;28;20706;-63
2020/12/25 09:43:08;;;;;;;11.80;5.63;;;;;;;2.01;79.67;101398.50;5036935;28;20294;-57
2020/12/25 09:45:35;;;;;;;12.50;6.50;;;;;;;2.03;79.56;101399.34;5018229;28;20609;-65
2020/12/25 09:48:01;;;;;;;11.67;6.30;;;;;;;2.07;79.14;101395.78;5010609;28;20326;-64
2020/12/25 09:50:27;;;;;;;13.63;7.20;;;;;;;2.12;78.91;101395.72;5023774;28;20742;-66
2020/12/25 09:52:54;;;;;;;11.63;7.23;;;;;;;2.16;79.58;101388.63;5024795;28;20281;-65
2020/12/25 09:55:20;;;;;;;11.27;6.70;;;;;;;2.21;79.39;101397.31;5027541;28;20293;-66
2020/12/25 09:57:46;;;;;;;13.57;6.10;;;;;;;2.23;79.36;101400.78;5028152;28;20625;-65
2020/12/25 10:00:15;;;;;;;10.87;5.50;;;;;;;2.23;79.04;101401.63;5028713;28;20248;-65
2020/12/25 10:02:42;;;;;;;12.03;6.10;;;;;;;2.26;78.99;101391.09;5023860;28;20226;-65
2020/12/25 10:05:10;;;;;;;11.57;6.20;;;;;;;2.28;78.59;101402.44;5034212;28;20632;-66
2020/12/25 10:07:36;;;;;;;8.67;5.40;;;;;;;2.32;79.02;101409.38;5020310;28;20309;-63
2020/12/25 10:10:03;;;;;;;11.43;5.77;;;;;;;2.36;79.03;101413.66;5019087;28;20301;-64
2020/12/25 10:12:29;;;;;;;9.03;5.43;;;;;;;2.41;79.21;101416.22;5011625;28;20309;-65
2020/12/25 10:14:55;;;;;;;10.37;4.70;;;;;;;2.45;79.26;101417.91;5019837;28;20297;-65
2020/12/25 10:17:21;;;;;;;11.83;4.63;;;;;;;2.49;78.27;101419.59;5016695;28;20238;-64
2020/12/25 10:19:48;;;;;;;9.43;4.00;;;;;;;2.52;78.71;101413.41;5021173;28;20228;-64
2020/12/25 10:22:15;;;;;;;7.23;4.40;;;;;;;2.51;78.07;101425.66;5017178;28;20190;-64
2020/12/25 10:24:41;;;;;;;8.33;4.30;;;;;;;2.51;78.20;101428.31;5015811;28;20204;-65
2020/12/25 10:27:07;;;;;;;7.53;5.03;;;;;;;2.48;78.21;101428.38;5022753;28;20751;-66
2020/12/25 10:29:33;;;;;;;14.37;8.70;;;;;;;2.48;78.04;101427.50;5018764;28;20198;-64
2020/12/25 10:31:59;;;;;;;7.40;5.03;;;;;;;2.49;77.46;101424.00;5025538;28;20268;-65
2020/12/25 10:34:25;;;;;;;8.83;4.13;;;;;;;2.48;77.52;101423.13;5030149;28;20198;-66
2020/12/25 10:36:52;;;;;;;10.90;5.03;;;;;;;2.50;77.61;101417.84;5032123;28;20197;-65
2020/12/25 10:39:18;;;;;;;10.17;4.23;;;;;;;2.52;77.21;101426.53;5040781;28;20264;-65
2020/12/25 10:41:44;;;;;;;11.07;4.80;;;;;;;2.55;77.71;101416.84;5020974;28;20772;-66
2020/12/25 10:44:10;;;;;;;8.63;4.20;;;;;;;2.57;77.29;101420.31;5032994;28;20208;-63
2020/12/25 10:46:36;;;;;;;4.13;3.63;;;;;;;2.59;76.68;101421.16;5011517;28;20210;-65
2020/12/25 10:49:03;;;;;;;5.43;3.27;;;;;;;2.60;76.35;101424.66;5019417;28;20218;-65
2020/12/25 10:51:29;;;;;;;7.97;3.57;;;;;;;2.60;76.24;101419.41;5015215;28;20194;-65
2020/12/25 10:53:56;;;;;;;5.90;3.30;;;;;;;2.59;76.81;101412.41;5020119;28;20194;-66
2020/12/25 10:56:23;;;;;;;4.80;3.00;;;;;;;2.60;76.79;101416.75;5020236;28;20553;-64
2020/12/25 10:58:49;;;;;;;6.43;3.20;;;;;;;2.59;76.56;101415.91;5021857;28;20271;-66
2020/12/25 11:01:23;;;;;;;6.53;3.27;;;;;;;2.59;76.11;101417.66;5025263;28;20316;-66
2020/12/25 11:03:49;;;;;;;5.80;3.10;;;;;;;2.62;75.78;101422.88;5015521;28;20248;-65
2020/12/25 11:06:15;;;;;;;6.40;3.33;;;;;;;2.61;75.59;101418.50;5016629;28;20231;-66
2020/12/25 11:08:41;;;;;;;5.83;3.27;;;;;;;2.64;75.89;101426.34;5023555;28;20219;-66
2020/12/25 11:11:08;;;;;;;4.83;2.67;;;;;;;2.64;76.14;101428.97;5024667;28;20598;-65
2020/12/25 11:13:34;;;;;;;6.57;2.83;;;;;;;2.65;76.20;101421.06;5026502;28;20213;-64
2020/12/25 11:16:00;;;;;;;5.77;2.97;;;;;;;2.65;75.76;101425.44;5022179;28;20194;-64
2020/12/25 11:18:26;;;;;;;6.27;3.00;;;;;;;2.65;75.28;101423.69;5017189;28;20260;-65
2020/12/25 11:20:53;;;;;;;7.00;2.40;;;;;;;2.67;75.07;101410.50;5023708;28;20241;-64
2020/12/25 11:23:19;;;;;;;5.00;2.50;;;;;;;2.67;75.39;101414.00;5020499;28;20213;-65
2020/12/25 11:25:45;;;;;;;3.17;2.27;;;;;;;2.67;75.56;101414.00;5017388;28;20351;-66
2020/12/25 11:28:12;;;;;;;6.10;2.70;;;;;;;2.68;75.56;101410.47;5022289;28;20232;-66
2020/12/25 11:30:38;;;;;;;5.43;2.37;;;;;;;2.71;75.22;101414.78;5018763;28;20199;-65